This is the latest recevied weather packets stored in our database for station/object WC4PEM-1. If no packets are shown the sender has not sent any weather packets the latest 10 day(s).
| Time | Temp. | Humidity | Pressure | Rain* | Wind** | Luminosity | Snow |
|---|---|---|---|---|---|---|---|
| 1777487020 | 32.78° C | 43% | 1014.2 hPa | 0 mm | - | 958 W/m² | - |
| 1777486808 | 32.78° C | 45% | 1014.1 hPa | 0 mm | - | 960 W/m² | - |
| 1777486720 | 32.78° C | 45% | 1014.1 hPa | 0 mm | - | 960 W/m² | - |
| 1777486452 | 32.78° C | 45% | 1014.2 hPa | 0 mm | - | 981 W/m² | - |
| 1777486420 | 32.78° C | 45% | 1014.2 hPa | 0 mm | - | 981 W/m² | - |
| 1777486120 | 32.22° C | 46% | 1014.2 hPa | 0 mm | - | 1007 W/m² | - |
| 1777485820 | 31.11° C | 48% | 1014.3 hPa | 0 mm | - | 1056 W/m² | - |
| 1777485520 | 30.56° C | 50% | 1014.3 hPa | 0 mm | - | 1021 W/m² | - |
| 1777485220 | 30° C | 48% | 1014.4 hPa | 0 mm | - | 819 W/m² | - |
| 1777484931 | 31.11° C | 48% | 1015 hPa | 0 mm | - | 991 W/m² | - |
| 1777484920 | 30° C | 49% | 1014.5 hPa | 0 mm | - | 1083 W/m² | - |
| 1777484620 | 30° C | 50% | 1014.6 hPa | 0 mm | - | 954 W/m² | - |
| 1777484320 | 30.56° C | 49% | 1014.7 hPa | 0 mm | - | 947 W/m² | - |
| 1777484020 | 31.11° C | 48% | 1014.8 hPa | 0 mm | - | 912 W/m² | - |
| 1777483720 | 31.11° C | 48% | 1014.9 hPa | 0 mm | - | 976 W/m² | - |
| 1777483420 | 31.11° C | 48% | 1015 hPa | 0 mm | - | 991 W/m² | - |
| 1777483203 | 30.56° C | 50% | 1015 hPa | 0 mm | - | 984 W/m² | - |
| 1777483120 | 30.56° C | 50% | 1015 hPa | 0 mm | - | 984 W/m² | - |
| 1777482820 | 30° C | 52% | 1014.9 hPa | 0 mm | - | 995 W/m² | - |
| 1777482616 | 29.44° C | 53% | 1015 hPa | 0 mm | - | 983 W/m² | - |
| 1777482520 | 29.44° C | 53% | 1015 hPa | 0 mm | - | 983 W/m² | - |
| 1777482220 | 29.44° C | 54% | 1015.1 hPa | 0 mm | - | 974 W/m² | - |
| 1777481921 | 29.44° C | 54% | 1015.3 hPa | 0 mm | - | 974 W/m² | - |
| 1777481622 | 29.44° C | 54% | 1015.4 hPa | 0 mm | - | 979 W/m² | - |
| 1777481320 | 29.44° C | 54% | 1015.5 hPa | 0 mm | - | 951 W/m² | - |
* Rain latest hour (hover to see other rain measurements)
** Current wind speed in m/s (hover to see current wind gust speed)